sensor_id;sensor_type;location;lat;lon;timestamp;P1;durP1;ratioP1;P2;durP2;ratioP2
24439;SDS011;12618;54.386;18.394;2022-10-31T00:01:45;38.90;;;27.13;;
24439;SDS011;12618;54.386;18.394;2022-10-31T00:04:16;48.00;;;26.35;;
24439;SDS011;12618;54.386;18.394;2022-10-31T00:06:46;60.28;;;27.75;;
24439;SDS011;12618;54.386;18.394;2022-10-31T00:09:17;53.63;;;26.27;;
24439;SDS011;12618;54.386;18.394;2022-10-31T00:11:47;56.65;;;25.77;;
24439;SDS011;12618;54.386;18.394;2022-10-31T00:14:18;69.80;;;26.00;;
24439;SDS011;12618;54.386;18.394;2022-10-31T00:16:48;75.70;;;25.82;;
24439;SDS011;12618;54.386;18.394;2022-10-31T00:19:18;60.05;;;26.00;;
24439;SDS011;12618;54.386;18.394;2022-10-31T00:21:51;67.67;;;25.92;;
24439;SDS011;12618;54.386;18.394;2022-10-31T00:24:21;64.72;;;24.15;;
24439;SDS011;12618;54.386;18.394;2022-10-31T00:26:52;59.10;;;23.95;;
24439;SDS011;12618;54.386;18.394;2022-10-31T00:29:22;71.50;;;24.00;;
24439;SDS011;12618;54.386;18.394;2022-10-31T00:31:53;63.75;;;22.98;;
24439;SDS011;12618;54.386;18.394;2022-10-31T00:34:23;62.40;;;22.77;;
24439;SDS011;12618;54.386;18.394;2022-10-31T00:36:54;57.53;;;23.15;;
24439;SDS011;12618;54.386;18.394;2022-10-31T00:39:25;66.70;;;23.25;;
24439;SDS011;12618;54.386;18.394;2022-10-31T00:41:55;64.07;;;21.77;;
24439;SDS011;12618;54.386;18.394;2022-10-31T00:44:25;62.62;;;22.02;;
24439;SDS011;12618;54.386;18.394;2022-10-31T00:46:56;150.20;;;24.85;;
24439;SDS011;12618;54.386;18.394;2022-10-31T00:49:26;92.67;;;24.27;;
24439;SDS011;12618;54.386;18.394;2022-10-31T00:51:57;108.15;;;24.40;;
24439;SDS011;12618;54.386;18.394;2022-10-31T00:54:27;159.65;;;25.35;;
24439;SDS011;12618;54.386;18.394;2022-10-31T00:56:58;115.15;;;22.95;;
24439;SDS011;12618;54.386;18.394;2022-10-31T00:59:28;95.07;;;21.90;;
24439;SDS011;12618;54.386;18.394;2022-10-31T01:01:59;99.05;;;22.02;;
24439;SDS011;12618;54.386;18.394;2022-10-31T01:04:29;97.50;;;19.35;;
24439;SDS011;12618;54.386;18.394;2022-10-31T01:07:00;79.42;;;19.82;;
24439;SDS011;12618;54.386;18.394;2022-10-31T01:09:30;152.38;;;21.48;;
24439;SDS011;12618;54.386;18.394;2022-10-31T01:12:01;120.17;;;20.40;;
24439;SDS011;12618;54.386;18.394;2022-10-31T01:14:31;78.87;;;19.62;;
24439;SDS011;12618;54.386;18.394;2022-10-31T01:17:01;155.85;;;24.05;;
24439;SDS011;12618;54.386;18.394;2022-10-31T01:19:32;95.40;;;20.68;;
24439;SDS011;12618;54.386;18.394;2022-10-31T01:22:02;55.75;;;19.90;;
24439;SDS011;12618;54.386;18.394;2022-10-31T01:24:33;72.27;;;20.37;;
24439;SDS011;12618;54.386;18.394;2022-10-31T01:27:03;114.95;;;22.93;;
24439;SDS011;12618;54.386;18.394;2022-10-31T01:29:34;144.82;;;24.10;;
24439;SDS011;12618;54.386;18.394;2022-10-31T01:32:04;61.27;;;19.37;;
24439;SDS011;12618;54.386;18.394;2022-10-31T01:34:35;111.85;;;20.17;;
24439;SDS011;12618;54.386;18.394;2022-10-31T01:37:05;137.65;;;21.77;;
24439;SDS011;12618;54.386;18.394;2022-10-31T01:39:36;75.70;;;18.02;;
24439;SDS011;12618;54.386;18.394;2022-10-31T01:42:06;55.45;;;18.12;;
24439;SDS011;12618;54.386;18.394;2022-10-31T01:47:17;88.80;;;17.35;;
24439;SDS011;12618;54.386;18.394;2022-10-31T01:49:48;60.63;;;16.62;;
24439;SDS011;12618;54.386;18.394;2022-10-31T01:57:34;188.47;;;20.37;;
24439;SDS011;12618;54.386;18.394;2022-10-31T02:00:07;80.70;;;17.90;;
24439;SDS011;12618;54.386;18.394;2022-10-31T02:02:38;180.45;;;20.43;;
24439;SDS011;12618;54.386;18.394;2022-10-31T02:05:10;308.52;;;25.85;;
24439;SDS011;12618;54.386;18.394;2022-10-31T02:10:21;140.40;;;21.80;;
24439;SDS011;12618;54.386;18.394;2022-10-31T02:12:51;96.72;;;20.50;;
24439;SDS011;12618;54.386;18.394;2022-10-31T02:15:23;160.82;;;20.55;;
24439;SDS011;12618;54.386;18.394;2022-10-31T02:17:53;127.02;;;22.87;;
24439;SDS011;12618;54.386;18.394;2022-10-31T02:20:24;173.17;;;22.07;;
24439;SDS011;12618;54.386;18.394;2022-10-31T02:33:52;110.05;;;30.02;;
24439;SDS011;12618;54.386;18.394;2022-10-31T02:36:28;86.70;;;30.25;;
24439;SDS011;12618;54.386;18.394;2022-10-31T02:39:06;187.97;;;33.20;;
24439;SDS011;12618;54.386;18.394;2022-10-31T02:44:22;71.65;;;27.95;;
24439;SDS011;12618;54.386;18.394;2022-10-31T02:47:27;85.20;;;29.25;;
24439;SDS011;12618;54.386;18.394;2022-10-31T02:49:33;68.60;;;29.27;;
24439;SDS011;12618;54.386;18.394;2022-10-31T02:54:46;106.12;;;23.52;;
24439;SDS011;12618;54.386;18.394;2022-10-31T02:57:18;101.78;;;22.22;;
24439;SDS011;12618;54.386;18.394;2022-10-31T02:59:50;180.10;;;25.48;;
24439;SDS011;12618;54.386;18.394;2022-10-31T03:02:31;117.37;;;22.58;;
24439;SDS011;12618;54.386;18.394;2022-10-31T03:07:50;83.12;;;20.35;;
24439;SDS011;12618;54.386;18.394;2022-10-31T03:15:44;123.90;;;23.25;;
24439;SDS011;12618;54.386;18.394;2022-10-31T03:18:23;67.92;;;19.85;;
24439;SDS011;12618;54.386;18.394;2022-10-31T03:20:57;112.70;;;22.87;;
24439;SDS011;12618;54.386;18.394;2022-10-31T03:23:28;179.42;;;24.30;;
24439;SDS011;12618;54.386;18.394;2022-10-31T03:26:00;185.75;;;23.20;;
24439;SDS011;12618;54.386;18.394;2022-10-31T03:28:34;78.85;;;19.62;;
24439;SDS011;12618;54.386;18.394;2022-10-31T03:31:04;114.90;;;21.60;;
24439;SDS011;12618;54.386;18.394;2022-10-31T03:33:36;136.32;;;22.13;;
24439;SDS011;12618;54.386;18.394;2022-10-31T03:36:07;152.55;;;23.85;;
24439;SDS011;12618;54.386;18.394;2022-10-31T03:38:38;63.40;;;19.70;;
24439;SDS011;12618;54.386;18.394;2022-10-31T03:41:10;77.30;;;20.08;;
24439;SDS011;12618;54.386;18.394;2022-10-31T03:43:42;80.40;;;21.07;;
24439;SDS011;12618;54.386;18.394;2022-10-31T03:46:13;69.37;;;20.27;;
24439;SDS011;12618;54.386;18.394;2022-10-31T03:48:44;125.15;;;22.07;;
24439;SDS011;12618;54.386;18.394;2022-10-31T03:51:15;174.65;;;26.40;;
24439;SDS011;12618;54.386;18.394;2022-10-31T03:56:37;167.47;;;26.30;;
24439;SDS011;12618;54.386;18.394;2022-10-31T03:59:05;176.47;;;25.75;;
24439;SDS011;12618;54.386;18.394;2022-10-31T04:01:38;102.97;;;23.02;;
24439;SDS011;12618;54.386;18.394;2022-10-31T04:04:09;81.00;;;21.55;;
24439;SDS011;12618;54.386;18.394;2022-10-31T04:06:41;267.60;;;28.25;;
24439;SDS011;12618;54.386;18.394;2022-10-31T04:09:13;151.68;;;25.05;;
24439;SDS011;12618;54.386;18.394;2022-10-31T04:11:46;172.13;;;24.40;;
24439;SDS011;12618;54.386;18.394;2022-10-31T04:14:16;174.05;;;24.57;;
24439;SDS011;12618;54.386;18.394;2022-10-31T04:16:46;170.35;;;25.40;;
24439;SDS011;12618;54.386;18.394;2022-10-31T04:19:17;94.32;;;23.25;;
24439;SDS011;12618;54.386;18.394;2022-10-31T04:21:48;210.20;;;29.27;;
24439;SDS011;12618;54.386;18.394;2022-10-31T04:24:18;94.80;;;24.45;;
24439;SDS011;12618;54.386;18.394;2022-10-31T04:26:48;174.95;;;26.15;;
24439;SDS011;12618;54.386;18.394;2022-10-31T04:29:19;281.87;;;29.75;;
24439;SDS011;12618;54.386;18.394;2022-10-31T04:31:49;223.53;;;27.32;;
24439;SDS011;12618;54.386;18.394;2022-10-31T04:34:20;183.20;;;26.23;;
24439;SDS011;12618;54.386;18.394;2022-10-31T04:36:50;160.20;;;28.98;;
24439;SDS011;12618;54.386;18.394;2022-10-31T04:39:20;99.90;;;25.50;;
24439;SDS011;12618;54.386;18.394;2022-10-31T04:41:51;262.80;;;29.82;;
24439;SDS011;12618;54.386;18.394;2022-10-31T04:44:21;269.23;;;30.17;;
24439;SDS011;12618;54.386;18.394;2022-10-31T04:46:52;117.57;;;28.35;;
24439;SDS011;12618;54.386;18.394;2022-10-31T04:49:22;85.85;;;25.23;;
24439;SDS011;12618;54.386;18.394;2022-10-31T04:51:53;143.57;;;27.85;;
24439;SDS011;12618;54.386;18.394;2022-10-31T04:54:23;254.47;;;33.60;;
24439;SDS011;12618;54.386;18.394;2022-10-31T04:56:54;125.22;;;26.23;;
24439;SDS011;12618;54.386;18.394;2022-10-31T04:59:24;99.42;;;24.70;;
24439;SDS011;12618;54.386;18.394;2022-10-31T05:01:54;161.15;;;25.12;;
24439;SDS011;12618;54.386;18.394;2022-10-31T05:04:25;155.40;;;26.27;;
24439;SDS011;12618;54.386;18.394;2022-10-31T05:06:55;160.95;;;24.90;;
24439;SDS011;12618;54.386;18.394;2022-10-31T05:09:26;260.45;;;27.48;;
24439;SDS011;12618;54.386;18.394;2022-10-31T05:11:56;220.48;;;27.27;;
24439;SDS011;12618;54.386;18.394;2022-10-31T05:14:26;371.73;;;33.23;;
24439;SDS011;12618;54.386;18.394;2022-10-31T05:16:57;250.05;;;30.92;;
24439;SDS011;12618;54.386;18.394;2022-10-31T05:19:27;215.40;;;30.90;;
24439;SDS011;12618;54.386;18.394;2022-10-31T05:21:58;245.73;;;31.62;;
24439;SDS011;12618;54.386;18.394;2022-10-31T05:24:28;189.70;;;28.62;;
24439;SDS011;12618;54.386;18.394;2022-10-31T05:26:59;251.92;;;31.20;;
24439;SDS011;12618;54.386;18.394;2022-10-31T05:29:29;182.30;;;27.73;;
24439;SDS011;12618;54.386;18.394;2022-10-31T05:32:01;206.78;;;26.25;;
24439;SDS011;12618;54.386;18.394;2022-10-31T05:34:32;133.50;;;24.90;;
24439;SDS011;12618;54.386;18.394;2022-10-31T05:37:02;159.60;;;27.27;;
24439;SDS011;12618;54.386;18.394;2022-10-31T05:39:33;120.13;;;26.23;;
24439;SDS011;12618;54.386;18.394;2022-10-31T05:42:03;74.35;;;24.85;;
24439;SDS011;12618;54.386;18.394;2022-10-31T05:44:34;151.35;;;29.10;;
24439;SDS011;12618;54.386;18.394;2022-10-31T05:47:04;150.30;;;27.27;;
24439;SDS011;12618;54.386;18.394;2022-10-31T05:49:35;98.35;;;25.68;;
24439;SDS011;12618;54.386;18.394;2022-10-31T05:52:05;117.93;;;27.30;;
24439;SDS011;12618;54.386;18.394;2022-10-31T05:54:36;93.67;;;26.02;;
24439;SDS011;12618;54.386;18.394;2022-10-31T05:57:06;94.67;;;27.60;;
24439;SDS011;12618;54.386;18.394;2022-10-31T05:59:36;143.50;;;31.27;;
24439;SDS011;12618;54.386;18.394;2022-10-31T06:02:07;179.00;;;33.88;;
24439;SDS011;12618;54.386;18.394;2022-10-31T06:04:38;150.70;;;30.40;;
24439;SDS011;12618;54.386;18.394;2022-10-31T06:07:09;180.50;;;33.00;;
24439;SDS011;12618;54.386;18.394;2022-10-31T06:09:39;180.40;;;33.18;;
24439;SDS011;12618;54.386;18.394;2022-10-31T06:12:09;201.40;;;33.38;;
24439;SDS011;12618;54.386;18.394;2022-10-31T06:14:40;129.12;;;29.80;;
24439;SDS011;12618;54.386;18.394;2022-10-31T06:17:10;185.95;;;33.42;;
24439;SDS011;12618;54.386;18.394;2022-10-31T06:19:41;113.60;;;30.08;;
24439;SDS011;12618;54.386;18.394;2022-10-31T06:22:11;136.05;;;32.58;;
24439;SDS011;12618;54.386;18.394;2022-10-31T06:24:42;90.30;;;28.38;;
24439;SDS011;12618;54.386;18.394;2022-10-31T06:27:12;70.80;;;26.07;;
24439;SDS011;12618;54.386;18.394;2022-10-31T06:29:43;77.75;;;27.65;;
24439;SDS011;12618;54.386;18.394;2022-10-31T06:32:15;76.97;;;26.65;;
24439;SDS011;12618;54.386;18.394;2022-10-31T06:34:46;65.60;;;29.15;;
24439;SDS011;12618;54.386;18.394;2022-10-31T06:37:18;106.92;;;32.95;;
24439;SDS011;12618;54.386;18.394;2022-10-31T06:39:48;100.17;;;33.63;;
24439;SDS011;12618;54.386;18.394;2022-10-31T06:42:19;123.85;;;31.00;;
24439;SDS011;12618;54.386;18.394;2022-10-31T06:44:49;78.52;;;31.00;;
24439;SDS011;12618;54.386;18.394;2022-10-31T06:47:19;75.87;;;29.95;;
24439;SDS011;12618;54.386;18.394;2022-10-31T06:49:50;99.83;;;34.53;;
24439;SDS011;12618;54.386;18.394;2022-10-31T06:52:20;88.20;;;35.78;;
24439;SDS011;12618;54.386;18.394;2022-10-31T06:54:53;63.17;;;30.95;;
24439;SDS011;12618;54.386;18.394;2022-10-31T06:57:23;110.25;;;34.43;;
24439;SDS011;12618;54.386;18.394;2022-10-31T06:59:54;91.45;;;31.07;;
24439;SDS011;12618;54.386;18.394;2022-10-31T07:02:24;59.42;;;28.35;;
24439;SDS011;12618;54.386;18.394;2022-10-31T07:04:54;75.15;;;29.10;;
24439;SDS011;12618;54.386;18.394;2022-10-31T07:07:25;63.45;;;29.82;;
24439;SDS011;12618;54.386;18.394;2022-10-31T07:09:55;85.17;;;29.70;;
24439;SDS011;12618;54.386;18.394;2022-10-31T07:12:26;68.25;;;27.98;;
24439;SDS011;12618;54.386;18.394;2022-10-31T07:14:56;83.72;;;30.12;;
24439;SDS011;12618;54.386;18.394;2022-10-31T07:17:26;59.42;;;26.07;;
24439;SDS011;12618;54.386;18.394;2022-10-31T07:19:57;70.52;;;27.60;;
24439;SDS011;12618;54.386;18.394;2022-10-31T07:22:34;76.53;;;28.03;;
24439;SDS011;12618;54.386;18.394;2022-10-31T07:25:05;75.45;;;29.42;;
24439;SDS011;12618;54.386;18.394;2022-10-31T07:27:36;91.75;;;31.10;;
24439;SDS011;12618;54.386;18.394;2022-10-31T07:30:07;86.82;;;31.65;;
24439;SDS011;12618;54.386;18.394;2022-10-31T07:32:48;67.05;;;28.07;;
24439;SDS011;12618;54.386;18.394;2022-10-31T07:35:20;56.10;;;27.30;;
24439;SDS011;12618;54.386;18.394;2022-10-31T07:37:50;74.03;;;38.13;;
24439;SDS011;12618;54.386;18.394;2022-10-31T07:40:21;81.67;;;38.28;;
24439;SDS011;12618;54.386;18.394;2022-10-31T07:42:52;75.40;;;34.78;;
24439;SDS011;12618;54.386;18.394;2022-10-31T07:45:23;87.37;;;34.78;;
24439;SDS011;12618;54.386;18.394;2022-10-31T07:47:53;71.28;;;31.73;;
24439;SDS011;12618;54.386;18.394;2022-10-31T07:50:25;60.98;;;28.67;;
24439;SDS011;12618;54.386;18.394;2022-10-31T07:53:10;64.32;;;28.73;;
24439;SDS011;12618;54.386;18.394;2022-10-31T07:55:37;59.40;;;29.45;;
24439;SDS011;12618;54.386;18.394;2022-10-31T07:58:13;74.40;;;32.95;;
24439;SDS011;12618;54.386;18.394;2022-10-31T08:00:41;62.45;;;30.52;;
24439;SDS011;12618;54.386;18.394;2022-10-31T08:03:13;62.78;;;31.00;;
24439;SDS011;12618;54.386;18.394;2022-10-31T08:05:44;61.65;;;31.17;;
24439;SDS011;12618;54.386;18.394;2022-10-31T08:08:17;53.45;;;30.08;;
24439;SDS011;12618;54.386;18.394;2022-10-31T08:10:47;61.68;;;30.50;;
24439;SDS011;12618;54.386;18.394;2022-10-31T08:13:18;54.43;;;28.83;;
24439;SDS011;12618;54.386;18.394;2022-10-31T08:15:48;52.62;;;27.37;;
24439;SDS011;12618;54.386;18.394;2022-10-31T08:18:20;51.48;;;27.80;;
24439;SDS011;12618;54.386;18.394;2022-10-31T08:20:53;60.60;;;28.42;;
24439;SDS011;12618;54.386;18.394;2022-10-31T08:23:23;55.55;;;28.38;;
24439;SDS011;12618;54.386;18.394;2022-10-31T08:25:54;52.50;;;28.00;;
24439;SDS011;12618;54.386;18.394;2022-10-31T08:28:24;51.48;;;27.98;;
24439;SDS011;12618;54.386;18.394;2022-10-31T08:30:56;54.42;;;28.07;;
24439;SDS011;12618;54.386;18.394;2022-10-31T08:33:27;61.65;;;27.65;;
24439;SDS011;12618;54.386;18.394;2022-10-31T08:35:58;62.20;;;29.02;;
24439;SDS011;12618;54.386;18.394;2022-10-31T08:38:28;57.65;;;29.55;;
24439;SDS011;12618;54.386;18.394;2022-10-31T08:40:58;60.45;;;28.98;;
24439;SDS011;12618;54.386;18.394;2022-10-31T08:43:29;57.75;;;28.75;;
24439;SDS011;12618;54.386;18.394;2022-10-31T08:45:59;62.17;;;28.83;;
24439;SDS011;12618;54.386;18.394;2022-10-31T08:48:30;61.35;;;29.72;;
24439;SDS011;12618;54.386;18.394;2022-10-31T08:51:02;73.45;;;31.55;;
24439;SDS011;12618;54.386;18.394;2022-10-31T08:53:32;74.10;;;32.42;;
24439;SDS011;12618;54.386;18.394;2022-10-31T08:56:03;80.00;;;35.78;;
24439;SDS011;12618;54.386;18.394;2022-10-31T08:58:33;82.88;;;33.42;;
24439;SDS011;12618;54.386;18.394;2022-10-31T09:01:04;61.08;;;31.10;;
24439;SDS011;12618;54.386;18.394;2022-10-31T09:03:35;59.58;;;31.05;;
24439;SDS011;12618;54.386;18.394;2022-10-31T09:06:06;67.50;;;33.13;;
24439;SDS011;12618;54.386;18.394;2022-10-31T09:08:38;64.40;;;32.67;;
24439;SDS011;12618;54.386;18.394;2022-10-31T09:11:09;66.92;;;33.05;;
24439;SDS011;12618;54.386;18.394;2022-10-31T09:13:39;59.98;;;32.30;;
24439;SDS011;12618;54.386;18.394;2022-10-31T09:16:10;57.27;;;29.75;;
24439;SDS011;12618;54.386;18.394;2022-10-31T09:18:40;55.65;;;29.37;;
24439;SDS011;12618;54.386;18.394;2022-10-31T09:21:11;72.92;;;34.10;;
24439;SDS011;12618;54.386;18.394;2022-10-31T09:23:41;56.23;;;30.15;;
24439;SDS011;12618;54.386;18.394;2022-10-31T09:26:12;67.85;;;31.97;;
24439;SDS011;12618;54.386;18.394;2022-10-31T09:28:42;54.40;;;30.15;;
24439;SDS011;12618;54.386;18.394;2022-10-31T09:31:14;54.23;;;30.02;;
24439;SDS011;12618;54.386;18.394;2022-10-31T09:33:45;62.83;;;32.17;;
24439;SDS011;12618;54.386;18.394;2022-10-31T09:36:15;59.77;;;31.87;;
24439;SDS011;12618;54.386;18.394;2022-10-31T09:38:46;61.95;;;32.88;;
24439;SDS011;12618;54.386;18.394;2022-10-31T09:46:41;52.98;;;30.80;;
24439;SDS011;12618;54.386;18.394;2022-10-31T09:51:57;51.18;;;30.92;;
24439;SDS011;12618;54.386;18.394;2022-10-31T09:54:34;52.88;;;32.33;;
24439;SDS011;12618;54.386;18.394;2022-10-31T09:56:59;52.55;;;31.45;;
24439;SDS011;12618;54.386;18.394;2022-10-31T09:59:31;51.65;;;30.88;;
24439;SDS011;12618;54.386;18.394;2022-10-31T10:02:04;54.90;;;33.05;;
24439;SDS011;12618;54.386;18.394;2022-10-31T10:07:12;57.43;;;34.80;;
24439;SDS011;12618;54.386;18.394;2022-10-31T10:09:43;53.55;;;36.28;;
24439;SDS011;12618;54.386;18.394;2022-10-31T10:18:05;49.20;;;33.08;;
24439;SDS011;12618;54.386;18.394;2022-10-31T10:25:49;43.33;;;29.50;;
24439;SDS011;12618;54.386;18.394;2022-10-31T10:28:23;43.83;;;31.80;;
24439;SDS011;12618;54.386;18.394;2022-10-31T10:30:59;47.25;;;32.40;;
24439;SDS011;12618;54.386;18.394;2022-10-31T10:36:03;45.98;;;30.80;;
24439;SDS011;12618;54.386;18.394;2022-10-31T10:38:52;44.60;;;31.42;;
24439;SDS011;12618;54.386;18.394;2022-10-31T10:41:13;39.85;;;29.27;;
24439;SDS011;12618;54.386;18.394;2022-10-31T10:43:44;41.00;;;28.70;;
24439;SDS011;12618;54.386;18.394;2022-10-31T10:52:01;50.43;;;36.08;;
24439;SDS011;12618;54.386;18.394;2022-10-31T11:00:19;44.08;;;30.68;;
24439;SDS011;12618;54.386;18.394;2022-10-31T11:02:49;47.90;;;35.33;;
24439;SDS011;12618;54.386;18.394;2022-10-31T11:05:36;42.38;;;30.68;;
24439;SDS011;12618;54.386;18.394;2022-10-31T11:08:05;42.45;;;29.92;;
24439;SDS011;12618;54.386;18.394;2022-10-31T11:10:36;39.67;;;28.45;;
24439;SDS011;12618;54.386;18.394;2022-10-31T11:15:53;40.30;;;28.92;;
24439;SDS011;12618;54.386;18.394;2022-10-31T11:18:20;41.68;;;29.05;;
24439;SDS011;12618;54.386;18.394;2022-10-31T11:20:54;39.98;;;28.23;;
24439;SDS011;12618;54.386;18.394;2022-10-31T11:23:25;46.85;;;31.62;;
24439;SDS011;12618;54.386;18.394;2022-10-31T11:26:00;42.15;;;30.68;;
24439;SDS011;12618;54.386;18.394;2022-10-31T11:28:32;43.10;;;29.82;;
24439;SDS011;12618;54.386;18.394;2022-10-31T11:31:06;39.35;;;27.87;;
24439;SDS011;12618;54.386;18.394;2022-10-31T11:33:45;38.63;;;27.07;;
24439;SDS011;12618;54.386;18.394;2022-10-31T11:38:53;39.30;;;28.15;;
24439;SDS011;12618;54.386;18.394;2022-10-31T11:41:28;39.78;;;27.85;;
24439;SDS011;12618;54.386;18.394;2022-10-31T11:43:59;44.58;;;30.85;;
24439;SDS011;12618;54.386;18.394;2022-10-31T11:46:40;38.98;;;28.12;;
24439;SDS011;12618;54.386;18.394;2022-10-31T11:49:03;48.65;;;33.45;;
24439;SDS011;12618;54.386;18.394;2022-10-31T11:51:34;48.92;;;32.78;;
24439;SDS011;12618;54.386;18.394;2022-10-31T11:54:06;45.67;;;31.85;;
24439;SDS011;12618;54.386;18.394;2022-10-31T11:56:39;43.23;;;30.30;;
24439;SDS011;12618;54.386;18.394;2022-10-31T11:59:18;44.58;;;31.42;;
24439;SDS011;12618;54.386;18.394;2022-10-31T12:01:49;39.75;;;29.05;;
24439;SDS011;12618;54.386;18.394;2022-10-31T12:04:22;41.30;;;28.67;;
24439;SDS011;12618;54.386;18.394;2022-10-31T12:06:52;41.73;;;28.77;;
24439;SDS011;12618;54.386;18.394;2022-10-31T12:09:29;38.70;;;27.30;;
24439;SDS011;12618;54.386;18.394;2022-10-31T12:17:18;49.48;;;34.23;;
24439;SDS011;12618;54.386;18.394;2022-10-31T12:30:49;43.28;;;28.95;;
24439;SDS011;12618;54.386;18.394;2022-10-31T12:41:32;37.17;;;25.15;;
24439;SDS011;12618;54.386;18.394;2022-10-31T12:57:30;44.73;;;30.65;;
24439;SDS011;12618;54.386;18.394;2022-10-31T13:00:02;41.05;;;28.30;;
24439;SDS011;12618;54.386;18.394;2022-10-31T13:02:39;47.85;;;37.75;;
24439;SDS011;12618;54.386;18.394;2022-10-31T13:05:27;40.30;;;28.90;;
24439;SDS011;12618;54.386;18.394;2022-10-31T13:13:19;43.10;;;28.73;;
24439;SDS011;12618;54.386;18.394;2022-10-31T13:15:51;39.75;;;26.87;;
24439;SDS011;12618;54.386;18.394;2022-10-31T13:18:25;37.78;;;26.23;;
24439;SDS011;12618;54.386;18.394;2022-10-31T13:20:55;39.50;;;26.75;;
24439;SDS011;12618;54.386;18.394;2022-10-31T13:23:36;45.70;;;29.67;;
24439;SDS011;12618;54.386;18.394;2022-10-31T13:26:12;41.70;;;29.50;;
24439;SDS011;12618;54.386;18.394;2022-10-31T13:31:24;49.67;;;40.30;;
24439;SDS011;12618;54.386;18.394;2022-10-31T13:34:00;41.48;;;29.50;;
24439;SDS011;12618;54.386;18.394;2022-10-31T13:36:41;37.42;;;27.90;;
24439;SDS011;12618;54.386;18.394;2022-10-31T13:41:47;34.90;;;23.85;;
24439;SDS011;12618;54.386;18.394;2022-10-31T13:44:18;37.53;;;24.98;;
24439;SDS011;12618;54.386;18.394;2022-10-31T13:46:49;39.10;;;25.12;;
24439;SDS011;12618;54.386;18.394;2022-10-31T13:54:45;40.58;;;27.20;;
24439;SDS011;12618;54.386;18.394;2022-10-31T13:57:16;38.17;;;26.77;;
24439;SDS011;12618;54.386;18.394;2022-10-31T13:59:49;41.98;;;26.12;;
24439;SDS011;12618;54.386;18.394;2022-10-31T14:02:26;39.08;;;26.35;;
24439;SDS011;12618;54.386;18.394;2022-10-31T14:04:59;41.53;;;27.35;;
24439;SDS011;12618;54.386;18.394;2022-10-31T14:07:30;41.45;;;28.70;;
24439;SDS011;12618;54.386;18.394;2022-10-31T14:12:35;46.42;;;29.23;;
24439;SDS011;12618;54.386;18.394;2022-10-31T14:15:16;45.65;;;29.85;;
24439;SDS011;12618;54.386;18.394;2022-10-31T14:18:03;42.35;;;26.68;;
24439;SDS011;12618;54.386;18.394;2022-10-31T14:20:37;34.78;;;23.15;;
24439;SDS011;12618;54.386;18.394;2022-10-31T14:23:12;29.57;;;20.25;;
24439;SDS011;12618;54.386;18.394;2022-10-31T14:25:42;36.50;;;22.45;;
24439;SDS011;12618;54.386;18.394;2022-10-31T14:28:34;40.33;;;22.17;;
24439;SDS011;12618;54.386;18.394;2022-10-31T14:30:55;36.15;;;22.98;;
24439;SDS011;12618;54.386;18.394;2022-10-31T14:33:26;40.00;;;25.92;;
24439;SDS011;12618;54.386;18.394;2022-10-31T14:36:01;35.35;;;23.22;;
24439;SDS011;12618;54.386;18.394;2022-10-31T14:41:46;25.50;;;17.32;;
24439;SDS011;12618;54.386;18.394;2022-10-31T14:52:07;28.12;;;16.80;;
24439;SDS011;12618;54.386;18.394;2022-10-31T14:54:40;28.90;;;18.57;;
24439;SDS011;12618;54.386;18.394;2022-10-31T14:57:15;30.88;;;18.60;;
24439;SDS011;12618;54.386;18.394;2022-10-31T14:59:47;33.05;;;20.20;;
24439;SDS011;12618;54.386;18.394;2022-10-31T15:02:21;31.60;;;20.48;;
24439;SDS011;12618;54.386;18.394;2022-10-31T15:04:51;37.75;;;22.07;;
24439;SDS011;12618;54.386;18.394;2022-10-31T15:07:24;33.38;;;20.35;;
24439;SDS011;12618;54.386;18.394;2022-10-31T15:09:58;40.73;;;25.08;;
24439;SDS011;12618;54.386;18.394;2022-10-31T15:12:28;48.15;;;26.07;;
24439;SDS011;12618;54.386;18.394;2022-10-31T15:15:11;34.98;;;22.65;;
24439;SDS011;12618;54.386;18.394;2022-10-31T15:17:49;29.95;;;20.50;;
24439;SDS011;12618;54.386;18.394;2022-10-31T15:20:20;31.68;;;20.80;;
24439;SDS011;12618;54.386;18.394;2022-10-31T15:22:51;30.10;;;20.02;;
24439;SDS011;12618;54.386;18.394;2022-10-31T15:25:22;38.75;;;22.65;;
24439;SDS011;12618;54.386;18.394;2022-10-31T15:27:53;39.03;;;22.07;;
24439;SDS011;12618;54.386;18.394;2022-10-31T15:30:28;37.83;;;21.73;;
24439;SDS011;12618;54.386;18.394;2022-10-31T15:32:56;34.20;;;21.60;;
24439;SDS011;12618;54.386;18.394;2022-10-31T15:35:28;35.38;;;21.62;;
24439;SDS011;12618;54.386;18.394;2022-10-31T15:37:59;32.75;;;20.05;;
24439;SDS011;12618;54.386;18.394;2022-10-31T15:40:31;32.55;;;19.98;;
24439;SDS011;12618;54.386;18.394;2022-10-31T15:43:03;34.25;;;20.62;;
24439;SDS011;12618;54.386;18.394;2022-10-31T15:45:34;35.85;;;21.70;;
24439;SDS011;12618;54.386;18.394;2022-10-31T15:48:18;33.95;;;21.65;;
24439;SDS011;12618;54.386;18.394;2022-10-31T15:50:53;34.15;;;22.02;;
24439;SDS011;12618;54.386;18.394;2022-10-31T15:53:29;30.23;;;20.10;;
24439;SDS011;12618;54.386;18.394;2022-10-31T15:56:04;40.17;;;25.62;;
24439;SDS011;12618;54.386;18.394;2022-10-31T15:58:32;157.43;;;98.35;;
24439;SDS011;12618;54.386;18.394;2022-10-31T16:01:04;118.90;;;67.80;;
24439;SDS011;12618;54.386;18.394;2022-10-31T16:03:35;49.08;;;32.53;;
24439;SDS011;12618;54.386;18.394;2022-10-31T16:06:18;46.85;;;27.80;;
24439;SDS011;12618;54.386;18.394;2022-10-31T16:08:44;40.45;;;24.20;;
24439;SDS011;12618;54.386;18.394;2022-10-31T16:16:32;35.68;;;21.90;;
24439;SDS011;12618;54.386;18.394;2022-10-31T16:19:03;35.85;;;22.52;;
24439;SDS011;12618;54.386;18.394;2022-10-31T16:21:35;35.25;;;22.50;;
24439;SDS011;12618;54.386;18.394;2022-10-31T16:24:26;33.73;;;22.20;;
24439;SDS011;12618;54.386;18.394;2022-10-31T16:27:04;34.27;;;21.75;;
24439;SDS011;12618;54.386;18.394;2022-10-31T16:29:39;34.98;;;22.10;;
24439;SDS011;12618;54.386;18.394;2022-10-31T16:37:40;38.78;;;23.38;;
24439;SDS011;12618;54.386;18.394;2022-10-31T16:40:12;37.93;;;24.35;;
24439;SDS011;12618;54.386;18.394;2022-10-31T16:42:45;38.80;;;24.82;;
24439;SDS011;12618;54.386;18.394;2022-10-31T16:45:24;35.15;;;24.57;;
24439;SDS011;12618;54.386;18.394;2022-10-31T16:47:51;41.92;;;27.17;;
24439;SDS011;12618;54.386;18.394;2022-10-31T16:50:23;41.88;;;28.70;;
24439;SDS011;12618;54.386;18.394;2022-10-31T16:52:54;39.38;;;27.48;;
24439;SDS011;12618;54.386;18.394;2022-10-31T16:55:25;38.15;;;25.25;;
24439;SDS011;12618;54.386;18.394;2022-10-31T16:57:56;38.58;;;25.23;;
24439;SDS011;12618;54.386;18.394;2022-10-31T17:00:27;33.10;;;22.65;;
24439;SDS011;12618;54.386;18.394;2022-10-31T17:02:58;38.67;;;24.12;;
24439;SDS011;12618;54.386;18.394;2022-10-31T17:05:28;37.65;;;24.35;;
24439;SDS011;12618;54.386;18.394;2022-10-31T17:07:59;37.45;;;25.55;;
24439;SDS011;12618;54.386;18.394;2022-10-31T17:10:30;41.00;;;25.82;;